Minturn, South Carolina
Current Conditions -  °F | °C
As of 11:35 AM on Tuesday 21 Oct 2014 (Local Time) from KBBP Reporting Station
Clear Clear  
Wind Chill: 72°   Ceiling: Unl
Heat Index: 72°   Visibility: 10mi
Dew Point: 52°   Wind: 3mph
Humidity: 50%   Direction: 300°WNW
Pressure: 29.94"   Gusts: NA
Location:  34.52°N, 79.47°W
Report Text: KBBP 211535Z AUTO 30003KT 10SM CLR 22/11 A2994 RMK AO2
Loading
Personal Weather Stations






























Interactive Weather Map
Tropical Storm Tracking
New forecast layout! Learn more

10-Day Weather Forecast

Advertisements
Track Severe Weather on mobile